首页
METAR-TAF:

METAR-TAF

机场 :

哥伦布, 密西西比州, 美国

纬度: 33-39N, 经度: 088-27W, 海拔: 67米

当前天气观测

该预报发布于2小时和28分钟前的22:56 UTC
风速4节,风向西南
温度 26°C
湿度 61%
气压 1017 hPa
能見度: 16.1公里
散云层高于14000英尺
多云层高于19000英尺

METAR: KCBM 062256Z COR AUTO 22004KT 10SM SCT140 BKN190 26/18 A3002 RMK AO2 SLP178 LAST $ COR 2300

时间: 20:24 (01:24 UTC)

预报

该预报发布于3小时和39分钟前的21:45 UTC
预报有效从06日的 21点(UTC)到 07日的 23点(UTC)
风速6节,风向多变
能见度10公里或以上
少量云层高于5500英尺
散云层高于10000英尺
成为
从 07日的 06点(UTC)到 07日的 07点(UTC)
风速6节,风向多变
能见度10公里或以上
多云层高于3500英尺
阴天层高于14000英尺
成为
从 07日的 15点(UTC)到 07日的 16点(UTC)
风速9节,风向
能見度: 8000
多云层高于800英尺
阴天层高于3500英尺
小阵雨
成为
从 07日的 21点(UTC)到 07日的 22点(UTC)
风速6节,风向多变
能見度: 0711
阴天层高于700英尺
附近有阵雨

TAF: KCBM 062145Z 0621/0723 VRB06KT 9999 FEW055 SCT100 QNH3003INS BECMG 0706/0707 VRB06KT 9999 BKN035 OVC140 QNH3000INS BECMG 0715/0716 19009KT 8000 -SHRA BKN008 OVC035 QNH2993INS BECMG 0721/0722 VRB06KT 9999 VCSH OVC007 QNH2990INS TX27/0621Z TN18/0710Z LAST NO AMDS AFT 0622 NEXT 0711

超过4000个机场的气象观测和天气预报(METAR&TAF报告)。

可查询的气象台以黄色和红色小点在地图上表示。

将鼠标移到小点上方,可查看气象台名称。

然后点击查看天气观测和预报。

如需切换地图:点击带黑十字的绿色按钮放大地图;点击带横线的绿色按钮缩小地图;或者点击绿色箭头查看邻近地区的地图。


METAR-TAF: